Wetterdaten: aktuell Dienstag, 20.08.2019 02:30
Datum Zeit Temp. A. Feuchte A. Luftdruck Regen Wind UV Solar Windben
20.08.2019 02:30 15,6 C 91 % 1018,0 hPa 0,0 l/m 0,0 km/h (0 Bft) 0,0 UV-I 0 W/m 0,0 km/h (0 Bft)
20.08.2019 01:30 15,2 C 91 % 1018,3 hPa 0,0 l/m 0,0 km/h (0 Bft) 0,0 UV-I 0 W/m 0,0 km/h (0 Bft)
20.08.2019 00:30 15,9 C 88 % 1017,9 hPa 0,0 l/m 0,0 km/h (0 Bft) 0,0 UV-I 0 W/m 0,0 km/h (0 Bft)
19.08.2019 23:30 16,4 C 88 % 1017,7 hPa 0,0 l/m 1,2 km/h (1 Bft) 0,0 UV-I 0 W/m 4,8 km/h (1 Bft)
19.08.2019 22:30 16,8 C 88 % 1017,5 hPa 0,0 l/m 0,0 km/h (0 Bft) 0,0 UV-I 0 W/m 0,0 km/h (0 Bft)
19.08.2019 21:30 17,1 C 85 % 1016,9 hPa 0,0 l/m 0,0 km/h (0 Bft) 0,0 UV-I 0 W/m 0,0 km/h (0 Bft)
19.08.2019 20:30 18,8 C 73 % 1016,3 hPa 0,0 l/m 0,0 km/h (0 Bft) 0,0 UV-I 0 W/m 0,0 km/h (0 Bft)
19.08.2019 19:30 21,4 C 64 % 1015,8 hPa 0,0 l/m 0,0 km/h (0 Bft) 0,0 UV-I 64 W/m 0,0 km/h (0 Bft)
19.08.2019 18:30 21,7 C 61 % 1015,6 hPa 0,0 l/m 0,0 km/h (0 Bft) 0,0 UV-I 189 W/m 0,0 km/h (0 Bft)
19.08.2019 17:30 21,4 C 62 % 1015,5 hPa 0,0 l/m 0,0 km/h (0 Bft) 0,0 UV-I 209 W/m 0,0 km/h (0 Bft)
19.08.2019 16:30 21,6 C 63 % 1015,4 hPa 0,0 l/m 0,0 km/h (0 Bft) 0,0 UV-I 288 W/m 1,6 km/h (1 Bft)
19.08.2019 15:30 20,4 C 69 % 1015,6 hPa 0,0 l/m 2,1 km/h (1 Bft) 0,3 UV-I 457 W/m 4,8 km/h (1 Bft)
19.08.2019 14:30 18,7 C 74 % 1015,3 hPa 0,0 l/m 2,2 km/h (1 Bft) 0,0 UV-I 301 W/m 8,0 km/h (2 Bft)
19.08.2019 13:30 17,2 C 82 % 1015,1 hPa 0,0 l/m 1,0 km/h (0 Bft) 0,0 UV-I 302 W/m 4,8 km/h (1 Bft)
19.08.2019 12:30 16,5 C 88 % 1014,7 hPa 0,0 l/m 0,0 km/h (0 Bft) 0,0 UV-I 127 W/m 0,0 km/h (0 Bft)
19.08.2019 11:30 16,4 C 88 % 1014,2 hPa 0,0 l/m 0,0 km/h (0 Bft) 0,0 UV-I 108 W/m 0,0 km/h (0 Bft)
19.08.2019 10:30 16,3 C 92 % 1013,4 hPa 0,0 l/m 0,0 km/h (0 Bft) 0,0 UV-I 100 W/m 0,0 km/h (0 Bft)
19.08.2019 09:30 17,5 C 89 % 1012,6 hPa 0,0 l/m 5,7 km/h (1 Bft) 0,0 UV-I 148 W/m 9,7 km/h (2 Bft)
19.08.2019 08:30 17,6 C 89 % 1012,0 hPa 0,0 l/m 3,1 km/h (1 Bft) 0,0 UV-I 87 W/m 11,3 km/h (2 Bft)
19.08.2019 07:30 17,3 C 89 % 1012,1 hPa 0,0 l/m 2,0 km/h (1 Bft) 0,0 UV-I 27 W/m 8,0 km/h (2 Bft)
19.08.2019 06:34 17,1 C 90 % 1011,0 hPa 0,0 l/m 0,9 km/h (0 Bft) 0,0 UV-I 5 W/m 3,2 km/h (1 Bft)
19.08.2019 05:34 16,8 C 92 % 1011,0 hPa 0,0 l/m 0,2 km/h (0 Bft) 0,0 UV-I 0 W/m 1,6 km/h (1 Bft)
19.08.2019 04:34 17,0 C 92 % 1010,3 hPa 0,0 l/m 0,4 km/h (0 Bft) 0,0 UV-I 0 W/m 3,2 km/h (1 Bft)
19.08.2019 03:34 17,0 C 92 % 1010,2 hPa 0,0 l/m 0,8 km/h (0 Bft) 0,0 UV-I 0 W/m 3,2 km/h (1 Bft)
19.08.2019 03:00 17,1 C 92 % 1010,0 hPa 0,0 l/m 0,0 km/h (0 Bft) 0,0 UV-I 0 W/m 0,0 km/h (0 Bft)
_ Min-Zeit 01:24 18:00 03:00 - 03:00 - - 03:00
Minimum _ 15,2 C 60 % 1010,0 hPa - 0,0 km/h (0 Bft) - - 0,0 km/h (0 Bft)
_ Max-Zeit 18:14 03:52 01:28 03:00 09:48 13:58 14:58 09:16
Maximum _ 21,8 C 93 % 1018,4 hPa 0,0 l/m 9,5 km/h
W-NW (2 Bft)
2,6 UV-I 812 W/m 16,1 km/h
W-SW (3 Bft)
Durchschnitt _ 17,8 C 83 % 1014,3 hPa #0,0 l/m 1,1 km/h (1 Bft) 0,0 UV-I 0 W/m 3,2 km/h (1 Bft)